ADDS METAR Data INFO
IDs: Format: Raw Decoded Include TAF

Data at: 0944 UTC 25 Jun 2018

KBGR 250853Z 02010KT 5SM RA BR BKN008 OVC012 13/12 A2983 RMK AO2 CIG 004V010 SLP100 P0007 60022 T01280122 53005
KBGR 250753Z 03007KT 7SM -RA OVC007 14/13 A2981 RMK AO2 CIG 004V010 SLP094 P0004 T01390133
KBGR 250737Z 03007KT 6SM -RA BR BKN005 OVC012 14/13 A2981 RMK AO2 CIG 004V009 P0004 T01390133
KBGR 250653Z 04008KT 5SM -RA BR FEW006 OVC012 14/13 A2981 RMK AO2 SLP092 P0011 T01390133
KBGR 250630Z 02010KT 3SM RA BR SCT006 BKN010 OVC019 14/14 A2982 RMK AO2 P0008 T01440139
KBGR 250622Z 03009KT 3SM -RA BR BKN006 BKN010 OVC018 14/14 A2982 RMK AO2 CIG 004V009 P0007 T01440139
KBGR 250608Z 04011KT 2 1/2SM RA BR BKN006 OVC018 14/14 A2982 RMK AO2 CIG 004V009 P0004 T01440139
KBGR 250553Z 36007KT 4SM -RA BR OVC006 14/14 A2982 RMK AO2 CIG 003V009 SLP095 P0007 60016 T01440139 10206 20144 58003
KBGR 250518Z 01007KT 8SM -RA BKN008 OVC021 14/14 A2982 RMK AO2 CIG 006V012 P0000 T01440139
KBGR 250453Z 01012KT 9SM -RA SCT010 BKN017 OVC023 15/14 A2982 RMK AO2 SLP097 P0006 T01500139 402440117
KBGR 250440Z 36013KT 7SM -RA SCT008 OVC011 15/14 A2983 RMK AO2 P0006 T01500139
KBGR 250409Z 36011G15KT 4SM RA BR BKN008 BKN026 OVC038 18/17 A2983 RMK AO2 CIG 005V014 P0003 T01780167
KBGR 250402Z 34004KT 5SM -RA BR BKN010 BKN026 OVC038 18/17 A2983 RMK AO2 CIG 006V014 P0001 T01780167
KBGR 250353Z 33008KT 7SM -RA FEW010 BKN038 OVC055 17/16 A2983 RMK AO2 SLP098 P0002 T01720161
KBGR 250253Z 00000KT 10SM -RA OVC060 18/16 A2983 RMK AO2 SLP098 P0001 60001 T01780161 51005
KBGR 250153Z 00000KT 10SM -RA OVC070 18/16 A2983 RMK AO2 RAB33 SLP098 P0000 T01830161
KBGR 250053Z 16005KT 10SM OVC070 20/16 A2982 RMK AO2 SLP094 T02000161
KBGR 242353Z 00000KT 10SM OVC070 19/17 A2981 RMK AO2 SLP092 T01940167 10244 20194 51010
KBGR 242253Z 28003KT 10SM FEW040 BKN060 OVC080 21/16 A2981 RMK AO2 SLP091 T02110156
KBGR 242153Z 27004KT 10SM FEW040 BKN060 OVC080 22/14 A2980 RMK AO2 SLP089 T02170144
KBGR 242053Z 28004KT 10SM FEW040 BKN065 OVC120 23/14 A2978 RMK AO2 SLP083 BINOVC T02280144 56001
KBGR 241953Z 27006KT 10SM SCT050 OVC120 22/14 A2978 RMK AO2 SLP082 T02220144
KBGR 241853Z 00000KT 10SM SCT060 BKN120 BKN250 23/12 A2978 RMK AO2 SLP081 T02330122
KBGR 241753Z VRB05KT 10SM FEW045 BKN120 BKN250 22/12 A2978 RMK AO2 SLP083 T02220122 10228 20133 56005
KBGR 241653Z VRB03KT 10SM FEW045 SCT110 BKN250 21/13 A2978 RMK AO2 SLP084 T02110128
KBGR 241553Z 18004KT 10SM FEW017 BKN045 BKN100 19/14 A2979 RMK AO2 SLP087 T01890144
KBGR 241506Z 19006KT 10SM FEW017 OVC047 18/13 A2980 RMK AO2 T01780133
KBGR 241453Z 22005KT 10SM BKN017 OVC050 18/14 A2980 RMK AO2 SLP089 T01780139 53005
KBGR 241409Z VRB04KT 10SM BKN015 BKN020 OVC055 17/13 A2979 RMK AO2 T01720133
KBGR 241353Z VRB04KT 10SM BKN013 BKN055 OVC070 18/13 A2978 RMK AO2 SLP084 BINOVC T01780133
KBGR 241324Z 31003KT 10SM BKN010 BKN049 OVC065 16/13 A2978 RMK AO2 T01610128
KBGR 241253Z 00000KT 10SM BKN009 OVC045 15/13 A2978 RMK AO2 SLP084 SML BINOVC T01500128
KBGR 241153Z 22004KT 10SM BKN008 BKN026 OVC047 13/12 A2978 RMK AO2 SLP085 60000 70049 T01330122 10139 20117 53005
KBGR 241053Z 00000KT 10SM FEW004 OVC022 13/12 A2977 RMK AO2 SLP080 T01280117
KBGR 240953Z 00000KT 10SM BCFG FEW005 OVC028 12/11 A2977 RMK AO2 DZB40E51 SLP080 P0000 T01220111
KBGR 240853Z 00000KT 10SM FEW010 OVC026 12/11 A2977 RMK AO2 SLP079 T01170111 56012
KBGR 240753Z 00000KT 10SM OVC026 12/11 A2977 RMK AO2 SLP080 T01170111
KBGR 240653Z 32003KT 10SM FEW008 OVC027 12/11 A2978 RMK AO2 SLP081 T01170106
KBGR 240615Z 00000KT 9SM SCT010 BKN017 OVC029 12/11 A2980 RMK AO2 T01170111
KBGR 240606Z 32003KT 5SM BR FEW006 BKN010 OVC029 12/11 A2980 RMK AO2 T01170111
KBGR 240553Z 31004KT 6SM BR FEW005 OVC029 12/11 A2981 RMK AO2 RAB37E52 SLP091 P0000 60038 T01170111 10144 20117 56015
KBGR 240515Z 29003KT 10SM FEW010 SCT029 OVC035 12/11 A2982 RMK AO2 T01170111
KBGR 240453Z 31004KT 9SM FEW010 OVC029 12/11 A2982 RMK AO2 RAE00 SLP095 P0000 T01170111 402110111
KBGR 240444Z 30004KT 10SM FEW010 OVC029 12/11 A2982 RMK AO2 RAE00 P0000 T01170111
KBGR 240412Z 00000KT 10SM SCT006 BKN030 OVC045 12/11 A2983 RMK AO2 RAE00 P0000 T01170111
KBGR 240353Z 00000KT 6SM -RA BR BKN006 BKN025 OVC030 12/12 A2983 RMK AO2 RAE08B26 SLP100 P0002 T01170117
KBGR 240313Z 00000KT 6SM BR SCT006 OVC026 12/11 A2985 RMK AO2 RAE08 P0000 T01220111
KBGR 240253Z 00000KT 6SM -RA BR OVC007 12/11 A2985 RMK AO2 SLP106 P0014 60036 T01170111 56009
KBGR 240226Z 00000KT 3SM RA BR BKN007 OVC027 12/11 A2986 RMK AO2 P0010 T01170111
KBGR 240218Z 00000KT 3SM RA BR SCT007 BKN027 OVC110 12/11 A2986 RMK AO2 P0008 T01170111
KBGR 240209Z 27004KT 2 1/2SM RA BR FEW010 BKN027 OVC110 12/11 A2987 RMK AO2 TWR VIS 3 P0005 T01170111
KBGR 240153Z 34004KT 3SM -RA BR FEW010 BKN055 OVC110 12/12 A2986 RMK AO2 SFC VIS 4 SLP108 P0016 T01220117
KBGR 240053Z 00000KT 4SM RA BR BKN043 OVC075 13/13 A2987 RMK AO2 SLP111 P0006 T01330128
KBGR 232353Z 27003KT 10SM -RA BKN043 OVC050 14/13 A2988 RMK AO2 SLP116 P0010 60011 T01390128 10211 20139 56012
KBGR 232253Z 21005KT 8SM -RA FEW060 BKN110 16/12 A2989 RMK AO2 RAB04 SLP118 P0001 T01610117
KBGR 232153Z 19007KT 10SM FEW070 SCT110 OVC120 18/09 A2989 RMK AO2 RAB2059E16 SLP120 P0000 T01830089